createdAt,value
2017-05-30T00:01:03.619Z,42.70
2017-05-30T00:03:31.870Z,42.10
2017-05-30T00:06:00.107Z,41.90
2017-05-30T00:08:28.339Z,42.30
2017-05-30T00:10:56.574Z,43.10
2017-05-30T00:13:24.807Z,44.00
2017-05-30T00:15:53.050Z,45.80
2017-05-30T00:21:14.830Z,47.00
2017-05-30T00:23:43.050Z,46.90
2017-05-30T00:26:11.298Z,46.90
2017-05-30T00:28:39.534Z,46.60
2017-05-30T00:31:07.770Z,46.90
2017-05-30T00:33:36.003Z,47.00
2017-05-30T00:36:04.247Z,47.20
2017-05-30T00:38:32.474Z,46.80
2017-05-30T00:41:00.713Z,46.90
2017-05-30T00:43:28.951Z,47.20
2017-05-30T00:45:57.216Z,47.20
2017-05-30T00:48:25.459Z,48.70
2017-05-30T00:50:53.669Z,51.10
2017-05-30T00:53:21.908Z,51.90
2017-05-30T00:55:50.146Z,54.50
2017-05-30T00:58:18.382Z,55.80
2017-05-30T01:00:46.600Z,56.10
2017-05-30T01:03:14.843Z,56.70
2017-05-30T01:05:43.089Z,56.60
2017-05-30T01:08:11.336Z,57.10
2017-05-30T01:10:39.562Z,57.40
2017-05-30T01:13:07.046Z,57.30
2017-05-30T01:15:35.274Z,56.00
2017-05-30T01:29:35.848Z,54.80
2017-05-30T01:32:04.070Z,54.60
2017-05-30T01:34:32.313Z,52.20
2017-05-30T01:37:00.537Z,49.20
2017-05-30T01:39:28.790Z,52.50
2017-05-30T01:41:56.250Z,52.50
2017-05-30T01:44:24.478Z,58.30
2017-05-30T01:46:52.711Z,58.10
2017-05-30T01:49:20.938Z,57.10
2017-05-30T01:51:49.188Z,52.30
2017-05-30T01:54:17.406Z,51.40
2017-05-30T01:56:45.656Z,50.20
2017-05-30T01:59:13.878Z,50.30
2017-05-30T02:01:42.120Z,51.00
2017-05-30T02:04:10.347Z,51.10
2017-05-30T02:06:38.941Z,51.30
2017-05-30T02:09:07.164Z,51.60
2017-05-30T02:11:35.401Z,50.60
2017-05-30T02:14:03.630Z,49.50
2017-05-30T02:16:31.883Z,51.40
2017-05-30T02:19:00.112Z,51.10
2017-05-30T02:21:28.347Z,51.60
2017-05-30T02:23:56.590Z,51.10
2017-05-30T02:26:24.818Z,51.10
2017-05-30T02:28:53.058Z,52.70
2017-05-30T02:31:21.284Z,53.70
2017-05-30T02:33:49.521Z,52.80
2017-05-30T02:36:17.745Z,53.20
2017-05-30T02:38:45.990Z,52.80
2017-05-30T02:41:14.219Z,53.00
2017-05-30T02:43:42.453Z,53.60
2017-05-30T02:46:10.680Z,54.40
2017-05-30T02:48:39.186Z,52.40
2017-05-30T02:51:07.411Z,49.70
2017-05-30T02:53:35.635Z,50.70
2017-05-30T02:56:23.386Z,50.00
2017-05-30T02:58:51.610Z,50.80
2017-05-30T03:01:19.835Z,51.30
2017-05-30T03:03:48.074Z,51.30
2017-05-30T03:06:16.299Z,51.40
2017-05-30T03:08:44.526Z,52.70
2017-05-30T03:11:12.762Z,52.90
2017-05-30T03:13:40.989Z,53.30
2017-05-30T03:16:09.217Z,51.60
2017-05-30T03:21:30.930Z,53.60
2017-05-30T03:23:59.181Z,52.00
2017-05-30T03:26:27.402Z,52.40
2017-05-30T03:28:55.622Z,52.70
2017-05-30T03:31:23.878Z,56.40
2017-05-30T03:33:52.106Z,57.00
2017-05-30T03:36:20.333Z,58.10
2017-05-30T03:38:48.571Z,57.40
2017-05-30T03:41:16.797Z,56.60
2017-05-30T03:43:45.072Z,56.30
2017-05-30T03:46:19.160Z,55.80
2017-05-30T03:48:47.422Z,56.30
2017-05-30T03:51:15.645Z,56.00
2017-05-30T03:53:43.866Z,55.50
2017-05-30T04:13:31.610Z,61.40
2017-05-30T04:15:59.850Z,62.30
2017-05-30T04:18:48.941Z,62.30
2017-05-30T04:21:17.209Z,62.00
2017-05-30T04:23:45.450Z,61.60
2017-05-30T04:32:19.142Z,63.70
2017-05-30T04:34:47.374Z,65.20
2017-05-30T04:37:15.619Z,65.50
2017-05-30T04:39:43.843Z,65.20
2017-05-30T04:42:12.080Z,64.50
2017-05-30T04:44:40.318Z,63.50
2017-05-30T04:47:08.543Z,63.00
2017-05-30T04:49:36.795Z,61.50
2017-05-30T04:52:05.003Z,61.40
2017-05-30T04:54:33.245Z,60.40
2017-05-30T04:57:01.471Z,60.20
2017-05-30T04:59:29.717Z,59.20
2017-05-30T05:01:57.938Z,58.90
2017-05-30T05:04:26.406Z,59.00
2017-05-30T05:06:54.649Z,58.60
2017-05-30T05:09:22.908Z,58.40
2017-05-30T05:11:51.129Z,58.30
2017-05-30T05:14:19.365Z,58.10
2017-05-30T05:16:47.602Z,57.90
2017-05-30T05:33:48.231Z,58.00
2017-05-30T05:36:16.478Z,55.30
2017-05-30T05:38:44.711Z,54.70
2017-05-30T05:41:12.954Z,54.00
2017-05-30T05:43:41.190Z,53.30
2017-05-30T05:46:09.453Z,52.20
2017-05-30T05:48:37.689Z,51.60
2017-05-30T05:51:05.924Z,50.90
2017-05-30T05:53:34.178Z,51.50
2017-05-30T05:56:02.414Z,51.20
2017-05-30T05:58:30.666Z,50.60
2017-05-30T06:00:58.907Z,50.20
2017-05-30T06:03:27.162Z,50.10
2017-05-30T06:05:55.391Z,50.50
2017-05-30T06:08:23.646Z,50.80
2017-05-30T06:10:51.874Z,50.60
2017-05-30T06:13:20.121Z,51.30
2017-05-30T06:15:48.374Z,51.70
2017-05-30T06:18:16.605Z,52.40
2017-05-30T06:20:44.854Z,52.10
2017-05-30T06:23:13.085Z,51.70
2017-05-30T06:25:41.333Z,51.20
2017-05-30T06:28:09.574Z,50.30
2017-05-30T06:30:37.818Z,49.10
2017-05-30T06:33:06.054Z,48.80
2017-05-30T06:35:34.297Z,49.20
2017-05-30T06:38:02.546Z,50.10
2017-05-30T06:40:30.786Z,50.90
2017-05-30T06:42:59.044Z,51.10
2017-05-30T06:45:27.281Z,51.30
2017-05-30T06:47:55.527Z,52.20
2017-05-30T06:50:23.756Z,51.20
2017-05-30T06:52:52.000Z,50.80
2017-05-30T06:55:20.233Z,51.00
2017-05-30T06:57:48.478Z,49.50
2017-05-30T07:00:16.717Z,49.40
2017-05-30T07:02:44.978Z,47.10
2017-05-30T07:05:13.209Z,47.30
2017-05-30T07:07:41.438Z,47.90
2017-05-30T07:10:09.687Z,46.90
2017-05-30T07:12:37.918Z,45.80
2017-05-30T07:15:06.175Z,45.60
2017-05-30T07:17:34.406Z,45.00
2017-05-30T07:20:02.650Z,45.80
2017-05-30T07:22:30.942Z,45.20
2017-05-30T07:24:59.143Z,44.90
2017-05-30T07:27:27.378Z,44.70
2017-05-30T07:29:55.630Z,45.00
2017-05-30T07:32:23.862Z,43.90
2017-05-30T07:34:52.099Z,43.40
2017-05-30T07:37:20.351Z,42.80
2017-05-30T07:39:48.577Z,42.40
2017-05-30T07:42:16.818Z,41.60
2017-05-30T07:44:45.051Z,40.60
2017-05-30T07:47:13.299Z,39.90
2017-05-30T07:49:41.529Z,39.30
2017-05-30T07:52:09.774Z,38.70
2017-05-30T07:54:38.021Z,39.10
2017-05-30T07:57:06.270Z,38.10
2017-05-30T07:59:34.501Z,37.90
2017-05-30T08:02:02.739Z,38.10
2017-05-30T08:04:30.986Z,38.30
2017-05-30T08:06:59.224Z,39.20
2017-05-30T08:09:27.469Z,40.70
2017-05-30T08:11:55.702Z,40.40
2017-05-30T08:14:23.951Z,41.10
2017-05-30T08:16:52.190Z,41.70
2017-05-30T08:19:20.437Z,41.80
2017-05-30T08:21:48.668Z,42.40
2017-05-30T08:24:16.906Z,42.00
2017-05-30T08:26:45.149Z,43.20
2017-05-30T08:29:13.402Z,43.00
2017-05-30T08:31:41.633Z,42.50
2017-05-30T08:34:09.885Z,42.90
2017-05-30T08:36:38.119Z,44.00
2017-05-30T08:39:06.362Z,44.20
2017-05-30T08:41:34.602Z,45.50
2017-05-30T08:44:02.830Z,45.80
2017-05-30T08:46:31.071Z,44.80
2017-05-30T08:48:59.305Z,44.50
2017-05-30T08:51:27.553Z,44.60
2017-05-30T08:53:55.790Z,45.40
2017-05-30T08:56:24.036Z,45.90
2017-05-30T08:58:52.266Z,46.60
2017-05-30T09:01:20.523Z,47.70
2017-05-30T09:03:47.991Z,47.70
2017-05-30T09:06:16.237Z,46.30
2017-05-30T09:08:44.474Z,46.20
2017-05-30T09:11:12.737Z,45.60
2017-05-30T09:13:40.979Z,45.80
2017-05-30T09:16:09.206Z,44.10
2017-05-30T09:18:37.447Z,42.30
2017-05-30T09:21:05.686Z,41.80
2017-05-30T09:23:33.934Z,40.70
2017-05-30T09:26:02.162Z,37.80
2017-05-30T09:28:30.414Z,37.40
2017-05-30T09:30:58.647Z,37.20
2017-05-30T09:33:26.906Z,37.30
2017-05-30T09:35:55.137Z,36.50
2017-05-30T09:38:23.390Z,36.60
2017-05-30T09:40:51.628Z,37.40
2017-05-30T09:43:19.871Z,38.40
2017-05-30T09:45:48.110Z,40.20
2017-05-30T09:48:16.338Z,40.90
2017-05-30T09:50:44.595Z,40.30
2017-05-30T09:53:12.826Z,40.00
2017-05-30T09:55:41.078Z,38.70
2017-05-30T09:58:09.313Z,38.20
2017-05-30T10:00:37.558Z,38.00
2017-05-30T10:03:05.789Z,38.80
2017-05-30T10:05:34.041Z,37.90
2017-05-30T10:08:02.277Z,37.80
2017-05-30T10:10:30.533Z,38.20
2017-05-30T10:12:58.780Z,37.10
2017-05-30T10:15:27.041Z,36.80
2017-05-30T10:17:58.911Z,36.80
2017-05-30T10:20:27.171Z,36.20
2017-05-30T10:22:55.414Z,35.10
2017-05-30T10:25:23.653Z,34.40
2017-05-30T10:27:51.902Z,33.20
2017-05-30T10:30:20.134Z,32.30
2017-05-30T10:32:48.386Z,32.50
2017-05-30T10:35:16.609Z,30.00
2017-05-30T10:37:44.850Z,30.30
2017-05-30T10:40:13.077Z,30.30
2017-05-30T10:42:41.315Z,29.30
2017-05-30T10:45:09.549Z,29.10
2017-05-30T10:47:37.778Z,28.20
2017-05-30T10:50:06.010Z,29.20
2017-05-30T10:52:34.314Z,30.20
2017-05-30T10:55:02.491Z,30.90
2017-05-30T10:57:30.730Z,33.20
2017-05-30T10:59:58.966Z,33.20
2017-05-30T11:02:27.209Z,34.90
2017-05-30T11:04:55.450Z,36.20
2017-05-30T11:07:23.672Z,42.70
2017-05-30T11:09:51.930Z,52.90
2017-05-30T11:12:20.168Z,45.40
2017-05-30T11:14:48.416Z,55.00
2017-05-30T11:17:20.007Z,61.20
2017-05-30T11:19:48.260Z,56.80
2017-05-30T11:22:16.488Z,70.80
2017-05-30T11:24:44.742Z,73.90
2017-05-30T11:27:12.990Z,79.40
2017-05-30T11:29:41.226Z,78.70
2017-05-30T11:32:09.467Z,77.60
2017-05-30T11:34:37.696Z,81.00
2017-05-30T11:37:05.937Z,79.60
2017-05-30T11:39:34.174Z,82.80
2017-05-30T11:42:01.662Z,82.80
2017-05-30T11:44:29.906Z,83.10
2017-05-30T11:46:58.152Z,82.80
2017-05-30T11:49:26.377Z,84.00
2017-05-30T11:51:54.617Z,86.50
2017-05-30T11:54:22.859Z,85.20
2017-05-30T11:56:51.122Z,85.50
2017-05-30T11:59:19.353Z,85.40
2017-05-30T12:01:47.582Z,90.00
2017-05-30T12:04:15.826Z,91.20
2017-05-30T12:06:44.066Z,92.10
2017-05-30T12:09:12.311Z,91.40
2017-05-30T12:11:40.550Z,91.10
2017-05-30T12:14:08.795Z,91.60
2017-05-30T12:16:37.022Z,91.90
2017-05-30T12:19:05.278Z,92.20
2017-05-30T12:21:33.515Z,92.30
2017-05-30T12:24:01.848Z,92.30
2017-05-30T12:26:30.002Z,92.10
2017-05-30T12:28:58.249Z,91.40
2017-05-30T12:31:26.482Z,91.70
2017-05-30T12:33:54.726Z,91.40
2017-05-30T12:36:22.954Z,92.30
2017-05-30T12:38:51.202Z,92.70
2017-05-30T12:41:19.442Z,93.00
2017-05-30T12:43:47.695Z,93.20
2017-05-30T12:46:15.921Z,92.60
2017-05-30T12:48:44.181Z,91.90
2017-05-30T12:51:12.419Z,91.30
2017-05-30T12:53:40.654Z,91.00
2017-05-30T12:56:08.898Z,91.10
2017-05-30T12:58:37.133Z,90.50
2017-05-30T13:01:05.378Z,90.40
2017-05-30T13:03:33.613Z,89.90
2017-05-30T13:06:01.876Z,90.10
2017-05-30T13:08:30.132Z,90.10
2017-05-30T13:10:58.391Z,88.80
2017-05-30T13:13:26.673Z,88.10
2017-05-30T13:15:54.943Z,88.50
2017-05-30T13:18:23.217Z,87.20
2017-05-30T13:20:51.467Z,86.10
2017-05-30T13:23:19.697Z,86.30
2017-05-30T13:25:47.948Z,85.90
2017-05-30T13:28:16.169Z,86.30
2017-05-30T13:30:44.397Z,84.80
2017-05-30T13:33:12.958Z,83.10
2017-05-30T13:35:41.198Z,83.50
2017-05-30T13:38:09.441Z,82.70
2017-05-30T13:40:37.679Z,81.80
2017-05-30T13:43:05.942Z,77.80
2017-05-30T13:45:34.187Z,75.00
2017-05-30T13:48:02.425Z,72.30
2017-05-30T13:50:30.654Z,68.60
2017-05-30T13:52:58.906Z,62.80
2017-05-30T13:55:27.142Z,62.10
2017-05-30T13:57:55.368Z,59.70
2017-05-30T14:00:23.610Z,62.00
2017-05-30T14:02:51.838Z,63.10
2017-05-30T14:05:20.078Z,65.10
2017-05-30T14:07:48.318Z,72.40
2017-05-30T14:10:16.557Z,75.30
2017-05-30T14:12:44.786Z,78.30
2017-05-30T14:15:13.025Z,77.80
2017-05-30T14:17:41.253Z,80.00
2017-05-30T14:20:09.495Z,77.10
2017-05-30T14:22:37.733Z,78.60
2017-05-30T14:25:05.957Z,79.50
2017-05-30T14:27:34.203Z,79.00
2017-05-30T14:30:02.452Z,80.10
2017-05-30T14:32:30.694Z,77.60
2017-05-30T14:34:58.925Z,78.40
2017-05-30T14:37:27.167Z,78.50
2017-05-30T14:39:55.393Z,76.70
2017-05-30T14:42:23.635Z,77.00
2017-05-30T14:44:51.853Z,76.80
2017-05-30T14:47:20.085Z,71.00
2017-05-30T14:49:48.336Z,71.80
2017-05-30T14:52:16.567Z,70.10
2017-05-30T14:54:44.810Z,69.80
2017-05-30T14:57:13.048Z,66.20
2017-05-30T14:59:41.294Z,66.40
2017-05-30T15:02:09.514Z,63.00
2017-05-30T15:04:37.754Z,60.00
2017-05-30T15:07:05.978Z,62.10
2017-05-30T15:09:34.217Z,62.10
2017-05-30T15:12:02.445Z,72.40
2017-05-30T15:14:30.678Z,80.70
2017-05-30T15:16:58.898Z,83.30
2017-05-30T15:19:27.125Z,83.30
2017-05-30T15:21:55.367Z,88.20
2017-05-30T15:24:23.610Z,88.70
2017-05-30T15:26:51.850Z,86.40
2017-05-30T15:29:20.078Z,89.00
2017-05-30T15:31:48.319Z,89.40
2017-05-30T15:34:16.547Z,87.80
2017-05-30T15:36:44.782Z,89.10
2017-05-30T15:39:13.010Z,91.10
2017-05-30T15:41:41.249Z,91.40
2017-05-30T15:44:09.489Z,91.20
2017-05-30T15:46:37.741Z,92.30
2017-05-30T15:49:05.962Z,92.50
2017-05-30T15:51:34.210Z,93.10
2017-05-30T15:54:02.446Z,94.00
2017-05-30T15:56:30.671Z,94.60
2017-05-30T15:58:58.913Z,93.60
2017-05-30T16:01:27.158Z,92.40
2017-05-30T16:03:55.388Z,91.20
2017-05-30T16:06:23.622Z,86.40
2017-05-30T16:08:51.858Z,86.70
2017-05-30T16:11:20.480Z,88.30
2017-05-30T16:13:48.725Z,87.60
2017-05-30T16:16:16.942Z,79.90
2017-05-30T16:18:45.174Z,81.40
2017-05-30T16:21:13.393Z,79.50
2017-05-30T16:23:41.662Z,80.00
2017-05-30T16:26:09.899Z,78.20
2017-05-30T16:28:38.143Z,76.20
2017-05-30T16:31:06.370Z,73.20
2017-05-30T16:33:34.587Z,72.40
2017-05-30T16:36:02.822Z,72.60
2017-05-30T16:38:31.052Z,71.90
2017-05-30T16:40:59.291Z,72.40
2017-05-30T16:43:27.508Z,72.00
2017-05-30T16:45:55.742Z,71.30
2017-05-30T16:48:23.969Z,68.10
2017-05-30T16:50:52.209Z,69.00
2017-05-30T16:53:20.429Z,68.00
2017-05-30T16:55:48.678Z,69.10
2017-05-30T16:58:16.905Z,67.50
2017-05-30T17:00:45.141Z,68.50
2017-05-30T17:03:13.369Z,72.10
2017-05-30T17:05:41.609Z,71.00
2017-05-30T17:08:09.837Z,70.20
2017-05-30T17:10:38.072Z,70.10
2017-05-30T17:13:06.307Z,70.70
2017-05-30T17:15:34.530Z,68.70
2017-05-30T17:18:06.089Z,70.90
2017-05-30T17:20:34.313Z,71.20
2017-05-30T17:23:02.549Z,70.80
2017-05-30T17:25:30.777Z,71.90
2017-05-30T17:27:59.018Z,72.00
2017-05-30T17:30:27.246Z,72.60
2017-05-30T17:32:55.477Z,75.80
2017-05-30T17:35:23.702Z,78.70
2017-05-30T17:37:51.949Z,78.90
2017-05-30T17:40:20.177Z,74.70
2017-05-30T17:42:48.422Z,73.90
2017-05-30T17:45:16.645Z,73.40
2017-05-30T17:47:44.873Z,72.20
2017-05-30T17:50:13.106Z,72.10
2017-05-30T17:52:41.322Z,71.30
2017-05-30T17:55:09.564Z,69.10
2017-05-30T17:57:37.794Z,68.50
2017-05-30T18:00:06.026Z,69.40
2017-05-30T18:02:34.246Z,69.00
2017-05-30T18:05:02.498Z,67.80
2017-05-30T18:07:30.718Z,68.70
2017-05-30T18:09:58.953Z,68.70
2017-05-30T18:12:27.194Z,68.70
2017-05-30T18:14:55.413Z,68.80
2017-05-30T18:17:23.660Z,70.50
2017-05-30T18:19:51.873Z,70.90
2017-05-30T18:22:20.102Z,70.60
2017-05-30T18:24:48.326Z,69.00
2017-05-30T18:27:16.577Z,69.10
2017-05-30T18:29:44.805Z,70.20
2017-05-30T18:32:13.022Z,71.20
2017-05-30T18:34:41.268Z,73.00
2017-05-30T18:37:09.497Z,74.90
2017-05-30T18:39:37.739Z,75.30
2017-05-30T18:42:05.961Z,75.90
2017-05-30T18:44:34.203Z,76.60
2017-05-30T18:47:02.417Z,77.50
2017-05-30T18:49:30.665Z,78.50
2017-05-30T18:51:58.887Z,78.90
2017-05-30T18:54:27.127Z,79.30
2017-05-30T18:56:55.350Z,80.20
2017-05-30T18:59:23.608Z,80.90
2017-05-30T19:01:51.830Z,82.20
2017-05-30T19:04:20.050Z,83.80
2017-05-30T19:06:48.282Z,84.30
2017-05-30T19:09:16.517Z,84.80
2017-05-30T19:11:44.742Z,84.90
2017-05-30T19:14:12.966Z,85.60
2017-05-30T19:16:41.210Z,86.50
2017-05-30T19:19:09.449Z,87.20
2017-05-30T19:21:37.687Z,87.80
2017-05-30T19:24:05.901Z,88.90
2017-05-30T19:26:34.154Z,89.60
2017-05-30T19:29:02.375Z,89.50
2017-05-30T19:31:30.596Z,88.90
2017-05-30T19:33:58.833Z,87.80
2017-05-30T19:36:27.061Z,86.90
2017-05-30T19:38:55.290Z,85.40
2017-05-30T19:41:23.510Z,85.10
2017-05-30T19:43:51.743Z,86.10
2017-05-30T19:46:19.969Z,87.60
2017-05-30T19:48:48.201Z,87.00
2017-05-30T19:51:16.449Z,87.40
2017-05-30T19:53:43.929Z,87.30
2017-05-30T19:56:12.162Z,88.40
2017-05-30T19:58:40.416Z,89.80
2017-05-30T20:01:08.650Z,90.30
2017-05-30T20:03:36.873Z,90.50
2017-05-30T20:06:05.122Z,91.00
2017-05-30T20:08:33.357Z,91.10
2017-05-30T20:11:01.593Z,91.40
2017-05-30T20:13:29.842Z,91.70
2017-05-30T20:15:58.086Z,91.40
2017-05-30T20:18:26.318Z,91.40
2017-05-30T20:20:54.561Z,91.10
2017-05-30T20:23:22.785Z,91.10
2017-05-30T20:25:51.033Z,90.90
2017-05-30T20:28:19.253Z,91.00
2017-05-30T20:30:47.493Z,90.90
2017-05-30T20:33:15.715Z,91.00
2017-05-30T20:35:43.958Z,90.90
2017-05-30T20:38:12.198Z,90.70
2017-05-30T20:40:40.417Z,90.50
2017-05-30T20:43:08.655Z,90.70
2017-05-30T20:45:36.889Z,90.70
2017-05-30T20:48:05.130Z,90.90
2017-05-30T20:50:33.359Z,90.70
2017-05-30T20:53:01.602Z,90.40
2017-05-30T20:55:29.830Z,90.50
2017-05-30T20:57:58.066Z,90.50
2017-05-30T21:00:26.306Z,90.30
2017-05-30T21:02:54.534Z,90.00
2017-05-30T21:05:22.758Z,90.20
2017-05-30T21:13:39.078Z,88.10
2017-05-30T21:22:17.465Z,86.60
2017-05-30T21:24:45.707Z,85.20
2017-05-30T21:27:13.942Z,85.10
2017-05-30T21:29:42.178Z,84.50
2017-05-30T21:32:10.402Z,84.30
2017-05-30T21:34:38.642Z,83.70
2017-05-30T21:37:07.701Z,83.70
2017-05-30T21:39:35.921Z,83.40
2017-05-30T21:42:04.162Z,83.40
2017-05-30T21:44:32.389Z,83.70
2017-05-30T21:47:00.626Z,84.60
2017-05-30T21:49:28.857Z,85.30
2017-05-30T21:51:57.101Z,86.20
2017-05-30T21:54:25.331Z,86.90
2017-05-30T21:56:53.565Z,86.00
2017-05-30T21:59:21.793Z,84.40
2017-05-30T22:01:50.025Z,84.30
2017-05-30T22:04:18.246Z,84.20
2017-05-30T22:06:46.499Z,84.00
2017-05-30T22:09:14.725Z,83.50
2017-05-30T22:11:42.949Z,84.20
2017-05-30T22:14:11.190Z,81.90
2017-05-30T22:16:39.419Z,82.20
2017-05-30T22:19:07.657Z,81.80
2017-05-30T22:21:35.886Z,81.00
2017-05-30T22:24:04.126Z,81.40
2017-05-30T22:26:32.341Z,81.20
2017-05-30T22:29:00.577Z,81.00
2017-05-30T22:31:28.806Z,81.30
2017-05-30T22:33:57.045Z,81.70
2017-05-30T22:36:25.266Z,81.00
2017-05-30T22:38:53.499Z,81.10
2017-05-30T22:41:21.729Z,81.30
2017-05-30T22:43:49.946Z,81.40
2017-05-30T22:46:18.177Z,81.10
2017-05-30T22:48:46.407Z,81.30
2017-05-30T22:51:14.653Z,81.50
2017-05-30T22:53:42.880Z,81.80
2017-05-30T22:56:11.113Z,82.00
2017-05-30T22:58:39.338Z,81.30
2017-05-30T23:01:07.574Z,81.20
2017-05-30T23:03:35.798Z,81.10
2017-05-30T23:06:04.049Z,80.30
2017-05-30T23:08:32.267Z,80.00
2017-05-30T23:11:00.489Z,80.30
2017-05-30T23:13:28.727Z,80.70
2017-05-30T23:16:02.789Z,80.60
2017-05-30T23:18:31.322Z,79.90
2017-05-30T23:20:59.542Z,80.20
2017-05-30T23:23:27.773Z,79.80
2017-05-30T23:26:09.076Z,80.20
2017-05-30T23:28:37.313Z,79.80
2017-05-30T23:31:05.529Z,78.90
2017-05-30T23:33:33.767Z,79.90
2017-05-30T23:36:01.997Z,79.20
2017-05-30T23:38:30.230Z,79.10
2017-05-30T23:40:58.442Z,78.90
2017-05-30T23:43:26.689Z,78.60
2017-05-30T23:45:54.901Z,78.60
2017-05-30T23:48:23.130Z,78.20
2017-05-30T23:50:51.349Z,78.10
2017-05-30T23:53:19.571Z,78.20
2017-05-30T23:55:47.801Z,78.10
2017-05-30T23:58:16.025Z,78.30
